Time;durP1;ratioP1;P1;durP2;ratioP2;P2;SDS_P1;SDS_P2;PMS_P1;PMS_P2;Temp;Humidity;BMP_temperature;BMP_pressure;BME280_temperature;BME280_humidity;BME280_pressure;Samples;Min_cycle;Max_cycle;Signal;HPM_P1;HPM_P2
2022/06/28 00:01:37;;;;;;;;;;;17.90;99.90;;;;;;5055854;28;19944;-70
2022/06/28 00:04:05;;;;;;;;;;;17.90;99.90;;;;;;5056074;28;20123;-70
2022/06/28 00:06:32;;;;;;;;;;;17.90;99.90;;;;;;5046193;28;19957;-70
2022/06/28 00:08:58;;;;;;;;;;;17.90;99.90;;;;;;5059784;28;20242;-70
2022/06/28 00:11:25;;;;;;;;;;;17.90;99.90;;;;;;5065666;28;19921;-70
2022/06/28 00:13:52;;;;;;;;;;;17.90;99.90;;;;;;5062054;28;19956;-70
2022/06/28 00:16:19;;;;;;;;;;;17.90;99.90;;;;;;5046300;28;19952;-70
2022/06/28 00:18:45;;;;;;;;;;;17.90;99.90;;;;;;5045952;28;20132;-70
2022/06/28 00:21:14;;;;;;;;;;;17.90;99.90;;;;;;5054983;28;19956;-70
2022/06/28 00:23:42;;;;;;;;;;;17.90;99.90;;;;;;5053803;28;19925;-70
2022/06/28 00:26:09;;;;;;;;;;;17.90;99.90;;;;;;5056337;28;19927;-70
2022/06/28 00:28:36;;;;;;;;;;;17.80;99.90;;;;;;5065571;28;20233;-71
2022/06/28 00:31:02;;;;;;;;;;;17.80;99.90;;;;;;5064977;28;19921;-70
2022/06/28 00:33:29;;;;;;;;;;;17.80;99.90;;;;;;5064226;28;20258;-70
2022/06/28 00:35:56;;;;;;;;;;;17.80;99.90;;;;;;5065153;28;20124;-70
2022/06/28 00:38:24;;;;;;;;;;;17.80;99.90;;;;;;5063944;28;19956;-70
2022/06/28 00:40:52;;;;;;;;;;;17.80;99.90;;;;;;5057592;28;19927;-70
2022/06/28 00:43:19;;;;;;;;;;;17.80;99.90;;;;;;5045102;28;19960;-70
2022/06/28 00:45:46;;;;;;;;;;;17.80;99.90;;;;;;5057528;28;19953;-71
2022/06/28 00:48:14;;;;;;;;;;;17.70;99.90;;;;;;5045535;28;19921;-70
2022/06/28 00:50:40;;;;;;;;;;;17.70;99.90;;;;;;5045402;28;19956;-70
2022/06/28 00:53:08;;;;;;;;;;;17.60;99.90;;;;;;5045014;28;19953;-70
2022/06/28 00:55:36;;;;;;;;;;;17.60;99.90;;;;;;5045139;28;20255;-71
2022/06/28 00:58:03;;;;;;;;;;;17.60;99.90;;;;;;5045467;28;19952;-70
2022/06/28 01:00:30;;;;;;;;;;;17.50;99.90;;;;;;5051062;28;20223;-70
2022/06/28 01:02:56;;;;;;;;;;;17.40;99.90;;;;;;5064574;28;19963;-71
2022/06/28 01:05:23;;;;;;;;;;;17.40;99.90;;;;;;5065250;28;19927;-71
2022/06/28 01:07:50;;;;;;;;;;;17.40;99.90;;;;;;5064016;28;19928;-70
2022/06/28 01:10:17;;;;;;;;;;;17.40;99.90;;;;;;5064590;28;20053;-70
2022/06/28 01:12:45;;;;;;;;;;;17.40;99.90;;;;;;5064521;28;20184;-70
2022/06/28 01:15:11;;;;;;;;;;;17.40;99.90;;;;;;5058549;28;20363;-70
2022/06/28 01:17:39;;;;;;;;;;;17.30;99.90;;;;;;5044775;28;19921;-70
2022/06/28 01:20:06;;;;;;;;;;;17.30;99.90;;;;;;5044987;28;19988;-70
2022/06/28 01:22:38;;;;;;;;;;;17.30;99.90;;;;;;5060037;28;20124;-71
2022/06/28 01:25:06;;;;;;;;;;;17.30;99.90;;;;;;5057210;28;19963;-70
2022/06/28 01:27:32;;;;;;;;;;;17.20;99.90;;;;;;5044851;28;19963;-70
2022/06/28 01:29:59;;;;;;;;;;;17.10;99.90;;;;;;5045053;28;19921;-71
2022/06/28 01:32:26;;;;;;;;;;;17.10;99.90;;;;;;5044646;28;20153;-70
2022/06/28 01:34:53;;;;;;;;;;;17.00;99.90;;;;;;5044741;28;19921;-70
2022/06/28 01:37:20;;;;;;;;;;;17.00;99.90;;;;;;5044482;28;19964;-71
2022/06/28 01:39:48;;;;;;;;;;;17.00;99.90;;;;;;5047481;28;19992;-70
2022/06/28 01:42:14;;;;;;;;;;;17.00;99.90;;;;;;5063958;28;20116;-70
2022/06/28 01:44:42;;;;;;;;;;;17.00;99.90;;;;;;5059566;28;19964;-70
2022/06/28 01:47:11;;;;;;;;;;;17.00;99.90;;;;;;5044591;28;19990;-70
2022/06/28 01:49:38;;;;;;;;;;;17.00;99.90;;;;;;5044500;28;19963;-70
2022/06/28 01:52:05;;;;;;;;;;;17.00;99.90;;;;;;5044119;28;19971;-71
2022/06/28 01:54:32;;;;;;;;;;;16.90;99.90;;;;;;5047048;28;20143;-70
2022/06/28 01:57:01;;;;;;;;;;;16.90;99.90;;;;;;5063159;28;19956;-70
2022/06/28 01:59:27;;;;;;;;;;;16.90;99.90;;;;;;5064110;28;19928;-70
2022/06/28 02:01:54;;;;;;;;;;;16.90;99.90;;;;;;5063859;28;19956;-71
2022/06/28 02:04:22;;;;;;;;;;;16.90;99.90;;;;;;5063528;28;20250;-70
2022/06/28 02:06:49;;;;;;;;;;;17.00;99.90;;;;;;5064006;28;19963;-70
2022/06/28 02:09:16;;;;;;;;;;;17.00;99.90;;;;;;5061507;28;19959;-70
2022/06/28 02:11:43;;;;;;;;;;;17.00;99.90;;;;;;5043926;28;19921;-71
2022/06/28 02:14:11;;;;;;;;;;;16.90;99.90;;;;;;5043646;28;20265;-70
2022/06/28 02:16:37;;;;;;;;;;;16.90;99.90;;;;;;5043902;28;19999;-70
2022/06/28 02:19:04;;;;;;;;;;;16.90;99.90;;;;;;5043587;28;19968;-70
2022/06/28 02:21:35;;;;;;;;;;;17.00;99.90;;;;;;5054962;28;19952;-70
2022/06/28 02:24:01;;;;;;;;;;;17.00;99.90;;;;;;5053245;28;19964;-70
2022/06/28 02:26:28;;;;;;;;;;;17.00;99.90;;;;;;5052668;28;19952;-70
2022/06/28 02:28:54;;;;;;;;;;;17.00;99.90;;;;;;5060634;28;19927;-71
2022/06/28 02:31:22;;;;;;;;;;;17.00;99.90;;;;;;5063498;28;19952;-70
2022/06/28 02:33:49;;;;;;;;;;;16.90;99.90;;;;;;5043385;23;19992;-91
2022/06/28 02:41:50;;;;;;;;;;;16.90;99.90;;;;;;4949335;28;20162;-88
2022/06/28 02:44:17;;;;;;;;;;;16.80;99.90;;;;;;5003797;28;20336;-88
2022/06/28 02:46:46;;;;;;;;;;;16.80;99.90;;;;;;5004624;28;19921;-90
2022/06/28 02:49:13;;;;;;;;;;;16.80;99.90;;;;;;5005939;28;19929;-89
2022/06/28 02:51:40;;;;;;;;;;;16.80;99.90;;;;;;5004158;28;19921;-88
2022/06/28 02:54:07;;;;;;;;;;;16.80;99.90;;;;;;5003549;28;19922;-88
2022/06/28 02:56:34;;;;;;;;;;;16.80;99.90;;;;;;5003830;28;20176;-90
2022/06/28 02:59:00;;;;;;;;;;;16.70;99.90;;;;;;5004046;28;20153;-89
2022/06/28 03:01:27;;;;;;;;;;;16.60;99.90;;;;;;5004085;28;19956;-89
2022/06/28 03:03:55;;;;;;;;;;;16.60;99.90;;;;;;5003447;28;19922;-89
2022/06/28 03:06:22;;;;;;;;;;;16.60;99.90;;;;;;5003846;28;19929;-89
2022/06/28 03:08:49;;;;;;;;;;;16.60;99.90;;;;;;5003585;28;19981;-89
2022/06/28 03:11:15;;;;;;;;;;;16.50;99.90;;;;;;5003788;28;19922;-88
2022/06/28 03:13:42;;;;;;;;;;;16.60;99.90;;;;;;5003597;28;19946;-89
2022/06/28 03:16:09;;;;;;;;;;;16.60;99.90;;;;;;5003484;28;20227;-89
2022/06/28 03:18:36;;;;;;;;;;;16.60;99.90;;;;;;5003925;28;20097;-89
2022/06/28 03:21:04;;;;;;;;;;;16.40;99.90;;;;;;5003427;28;20258;-89
2022/06/28 03:23:31;;;;;;;;;;;16.40;99.90;;;;;;5003577;28;19984;-90
2022/06/28 03:25:58;;;;;;;;;;;16.40;99.90;;;;;;5003640;28;19985;-89
2022/06/28 03:28:24;;;;;;;;;;;16.30;99.90;;;;;;5003458;28;19922;-89
2022/06/28 03:30:51;;;;;;;;;;;16.20;99.90;;;;;;5005146;28;19922;-89
2022/06/28 03:33:18;;;;;;;;;;;16.20;99.90;;;;;;5007172;28;19922;-89
2022/06/28 03:35:45;;;;;;;;;;;16.20;99.90;;;;;;5007610;28;19921;-89
2022/06/28 03:38:13;;;;;;;;;;;16.20;99.90;;;;;;5007293;28;19929;-89
2022/06/28 03:40:40;;;;;;;;;;;16.10;99.90;;;;;;5007460;28;19922;-89
2022/06/28 03:43:07;;;;;;;;;;;16.10;99.90;;;;;;5006893;28;19936;-89
2022/06/28 03:45:33;;;;;;;;;;;16.10;99.90;;;;;;5006485;28;19929;-89
2022/06/28 03:48:00;;;;;;;;;;;16.10;99.90;;;;;;5007501;28;19953;-88
2022/06/28 03:50:27;;;;;;;;;;;16.10;99.90;;;;;;5007428;28;19949;-89
2022/06/28 03:52:53;;;;;;;;;;;16.10;99.90;;;;;;5007131;28;19969;-89
2022/06/28 03:55:21;;;;;;;;;;;16.10;99.90;;;;;;5007361;28;19949;-89
2022/06/28 03:57:48;;;;;;;;;;;16.10;99.90;;;;;;5006977;28;19945;-89
2022/06/28 04:00:15;;;;;;;;;;;16.10;99.90;;;;;;5006920;28;19990;-90
2022/06/28 04:02:42;;;;;;;;;;;16.10;99.90;;;;;;5006984;28;19928;-89
2022/06/28 04:05:09;;;;;;;;;;;16.10;99.90;;;;;;5006980;28;20143;-89
2022/06/28 04:07:36;;;;;;;;;;;16.10;99.90;;;;;;5006924;28;19921;-90
2022/06/28 04:10:02;;;;;;;;;;;16.20;99.90;;;;;;5007102;28;19929;-89
2022/06/28 04:12:31;;;;;;;;;;;16.20;99.90;;;;;;5006834;28;19926;-89
2022/06/28 04:14:57;;;;;;;;;;;16.20;99.90;;;;;;5006693;28;19929;-90
2022/06/28 04:17:24;;;;;;;;;;;16.20;99.90;;;;;;5005756;28;20217;-89
2022/06/28 04:19:51;;;;;;;;;;;16.20;99.90;;;;;;5007022;28;19921;-90
2022/06/28 04:22:18;;;;;;;;;;;16.30;99.90;;;;;;5006690;28;19928;-90
2022/06/28 04:24:44;;;;;;;;;;;16.30;99.90;;;;;;5001862;28;19953;-89
2022/06/28 04:27:11;;;;;;;;;;;16.30;99.90;;;;;;5013188;28;19922;-89
2022/06/28 04:29:39;;;;;;;;;;;16.30;99.90;;;;;;5007020;28;20116;-91
2022/06/28 04:32:07;;;;;;;;;;;16.40;99.90;;;;;;5006854;28;19921;-89
2022/06/28 04:34:46;;;;;;;;;;;16.40;99.90;;;;;;5006770;28;19941;-89
2022/06/28 04:37:13;;;;;;;;;;;16.50;99.90;;;;;;5006900;28;19969;-88
2022/06/28 04:42:12;;;;;;;;;;;16.60;99.90;;;;;;5022938;28;19928;-69
2022/06/28 04:44:41;;;;;;;;;;;16.70;99.90;;;;;;5025953;28;19967;-69
2022/06/28 04:47:08;;;;;;;;;;;16.70;99.90;;;;;;5026283;28;19925;-69
2022/06/28 04:49:35;;;;;;;;;;;16.80;99.90;;;;;;5026162;28;19928;-70
2022/06/28 04:52:02;;;;;;;;;;;16.80;99.90;;;;;;5014841;23;19992;-71
2022/06/28 04:54:28;;;;;;;;;;;16.90;99.90;;;;;;5000673;28;19957;-72
2022/06/28 04:56:55;;;;;;;;;;;16.90;99.90;;;;;;5002485;28;20228;-72
2022/06/28 04:59:22;;;;;;;;;;;17.00;99.90;;;;;;5006293;28;19922;-71
2022/06/28 05:01:50;;;;;;;;;;;17.00;99.90;;;;;;5004834;28;19956;-72
2022/06/28 05:04:16;;;;;;;;;;;17.00;99.90;;;;;;5002293;28;19961;-71
2022/06/28 05:06:43;;;;;;;;;;;17.00;99.90;;;;;;5006087;28;19953;-68
2022/06/28 05:09:10;;;;;;;;;;;17.00;99.90;;;;;;5003774;28;19941;-68
2022/06/28 05:11:37;;;;;;;;;;;17.00;99.90;;;;;;4998885;28;19929;-68
2022/06/28 05:14:05;;;;;;;;;;;17.10;99.90;;;;;;5000423;28;20311;-69
2022/06/28 05:16:31;;;;;;;;;;;17.20;99.90;;;;;;5003780;28;19929;-71
2022/06/28 05:18:59;;;;;;;;;;;17.20;99.90;;;;;;5006336;28;19929;-71
2022/06/28 05:21:26;;;;;;;;;;;17.30;99.90;;;;;;5005188;28;20243;-71
2022/06/28 05:23:53;;;;;;;;;;;17.40;99.90;;;;;;5005065;28;20252;-71
2022/06/28 05:26:19;;;;;;;;;;;17.40;99.90;;;;;;5004582;28;20304;-71
2022/06/28 05:28:46;;;;;;;;;;;17.60;99.90;;;;;;5004514;28;20213;-71
2022/06/28 05:31:13;;;;;;;;;;;17.70;99.90;;;;;;5005703;28;20097;-71
2022/06/28 05:33:39;;;;;;;;;;;17.70;99.90;;;;;;5005070;28;19944;-71
2022/06/28 05:36:08;;;;;;;;;;;17.70;99.90;;;;;;5004065;28;19972;-71
2022/06/28 05:38:35;;;;;;;;;;;17.80;99.90;;;;;;5005771;28;19984;-71
2022/06/28 05:41:02;;;;;;;;;;;17.90;99.90;;;;;;5005450;28;19968;-71
2022/06/28 05:43:28;;;;;;;;;;;18.00;99.90;;;;;;5005293;28;19989;-70
2022/06/28 05:45:56;;;;;;;;;;;18.00;99.90;;;;;;5004952;28;19996;-70
2022/06/28 05:48:23;;;;;;;;;;;18.10;99.90;;;;;;5005061;28;19929;-70
2022/06/28 05:50:49;;;;;;;;;;;18.20;99.90;;;;;;5004850;28;19929;-70
2022/06/28 05:53:17;;;;;;;;;;;18.30;99.90;;;;;;4985310;28;19954;-69
2022/06/28 05:55:44;;;;;;;;;;;18.30;99.90;;;;;;4985854;28;19929;-69
2022/06/28 05:58:11;;;;;;;;;;;18.30;99.90;;;;;;4986044;28;19922;-69
2022/06/28 06:00:39;;;;;;;;;;;18.40;99.90;;;;;;4985248;28;19997;-69
2022/06/28 06:03:06;;;;;;;;;;;18.50;99.90;;;;;;4984150;28;20029;-69
2022/06/28 06:05:33;;;;;;;;;;;18.50;99.90;;;;;;5003345;28;19968;-69
2022/06/28 06:07:59;;;;;;;;;;;18.50;99.90;;;;;;5004752;28;19928;-69
2022/06/28 06:10:27;;;;;;;;;;;18.50;99.90;;;;;;5004546;28;20182;-68
2022/06/28 06:12:54;;;;;;;;;;;18.50;99.90;;;;;;5004324;28;20105;-69
2022/06/28 06:15:21;;;;;;;;;;;18.60;99.90;;;;;;5004107;28;19929;-68
2022/06/28 06:17:47;;;;;;;;;;;18.70;99.90;;;;;;5004355;28;20223;-68
2022/06/28 06:20:14;;;;;;;;;;;18.70;99.90;;;;;;5004147;28;20114;-68
2022/06/28 06:22:41;;;;;;;;;;;18.70;99.90;;;;;;5003871;28;19980;-69
2022/06/28 06:25:08;;;;;;;;;;;18.70;99.90;;;;;;5004105;28;20244;-69
2022/06/28 06:27:36;;;;;;;;;;;18.80;99.90;;;;;;5004063;28;19957;-69
2022/06/28 06:30:03;;;;;;;;;;;18.80;99.90;;;;;;5003799;28;19964;-69
2022/06/28 06:32:30;;;;;;;;;;;18.80;99.90;;;;;;5004191;28;20397;-69
2022/06/28 06:34:56;;;;;;;;;;;18.80;99.90;;;;;;5003762;28;19922;-68
2022/06/28 06:37:23;;;;;;;;;;;18.80;99.90;;;;;;5004119;28;19956;-70
2022/06/28 06:39:49;;;;;;;;;;;18.70;99.90;;;;;;5003753;28;19956;-69
2022/06/28 06:42:16;;;;;;;;;;;18.80;99.90;;;;;;5003601;28;19926;-68
2022/06/28 06:44:44;;;;;;;;;;;18.80;99.90;;;;;;5001149;28;19960;-68
2022/06/28 06:47:13;;;;;;;;;;;18.80;99.90;;;;;;5002721;28;19988;-68
2022/06/28 06:49:40;;;;;;;;;;;18.90;99.90;;;;;;5003557;28;19921;-69
2022/06/28 06:52:06;;;;;;;;;;;18.90;99.90;;;;;;5003216;28;19922;-70
2022/06/28 06:54:33;;;;;;;;;;;18.90;99.90;;;;;;5003097;28;20179;-69
2022/06/28 06:57:00;;;;;;;;;;;19.00;99.90;;;;;;5003517;28;20259;-69
2022/06/28 06:59:26;;;;;;;;;;;19.00;99.90;;;;;;5003763;28;19929;-68
2022/06/28 07:01:55;;;;;;;;;;;19.00;99.90;;;;;;5003057;28;19926;-69
2022/06/28 07:04:21;;;;;;;;;;;19.10;99.90;;;;;;5003325;28;19937;-69
2022/06/28 07:06:48;;;;;;;;;;;19.10;99.90;;;;;;5006889;28;19928;-69
2022/06/28 07:09:15;;;;;;;;;;;19.20;99.90;;;;;;5007348;28;19929;-69
2022/06/28 07:11:42;;;;;;;;;;;19.20;99.90;;;;;;5006456;28;19922;-70
2022/06/28 07:14:08;;;;;;;;;;;19.20;99.90;;;;;;5007164;28;20201;-68
2022/06/28 07:16:35;;;;;;;;;;;19.20;99.90;;;;;;5007154;28;19985;-69
2022/06/28 07:19:03;;;;;;;;;;;19.30;99.90;;;;;;5007639;28;19964;-69
2022/06/28 07:21:30;;;;;;;;;;;19.30;99.90;;;;;;5007371;28;19929;-68
2022/06/28 07:23:56;;;;;;;;;;;19.40;99.90;;;;;;5007310;28;20216;-70
2022/06/28 07:26:23;;;;;;;;;;;19.40;99.90;;;;;;5007321;28;19972;-69
2022/06/28 07:28:50;;;;;;;;;;;19.40;99.90;;;;;;5008083;28;19921;-68
2022/06/28 07:31:17;;;;;;;;;;;19.50;99.90;;;;;;5007429;28;19976;-69
2022/06/28 07:33:43;;;;;;;;;;;19.50;99.90;;;;;;5006691;28;19929;-68
2022/06/28 07:36:11;;;;;;;;;;;19.50;99.90;;;;;;5007177;28;19928;-68
2022/06/28 07:38:38;;;;;;;;;;;19.50;99.90;;;;;;5007268;28;20232;-68
2022/06/28 07:41:05;;;;;;;;;;;19.60;99.90;;;;;;5007549;28;19921;-68
2022/06/28 07:43:31;;;;;;;;;;;19.70;99.90;;;;;;5007338;28;20005;-69
2022/06/28 07:45:58;;;;;;;;;;;19.60;99.90;;;;;;5006424;28;19922;-69
2022/06/28 07:48:25;;;;;;;;;;;19.70;99.90;;;;;;5006979;28;19926;-69
2022/06/28 07:53:45;;;;;;;;;;;19.80;99.90;;;;;;4971701;28;19921;-69
2022/06/28 07:56:13;;;;;;;;;;;19.80;99.90;;;;;;5006719;28;20086;-69
2022/06/28 07:58:40;;;;;;;;;;;19.90;99.90;;;;;;5006167;28;19922;-69
2022/06/28 08:01:07;;;;;;;;;;;19.80;99.90;;;;;;5006876;28;20209;-69
2022/06/28 08:03:34;;;;;;;;;;;19.90;99.90;;;;;;5005726;28;20213;-69
2022/06/28 08:06:01;;;;;;;;;;;19.80;99.90;;;;;;5006579;28;19965;-68
2022/06/28 08:08:27;;;;;;;;;;;19.90;99.90;;;;;;5006442;28;19976;-69
2022/06/28 08:10:55;;;;;;;;;;;20.00;99.90;;;;;;5006367;28;20239;-69
2022/06/28 08:13:22;;;;;;;;;;;20.10;99.90;;;;;;5006318;28;20168;-69
2022/06/28 08:15:49;;;;;;;;;;;20.20;99.90;;;;;;5006372;28;19985;-69
2022/06/28 08:18:15;;;;;;;;;;;20.20;99.90;;;;;;5005623;28;19964;-69
2022/06/28 08:20:42;;;;;;;;;;;20.30;99.90;;;;;;5006393;28;20272;-69
2022/06/28 08:23:09;;;;;;;;;;;20.30;99.90;;;;;;5006328;28;19985;-69
2022/06/28 08:25:36;;;;;;;;;;;20.30;99.90;;;;;;5006495;28;19944;-71
2022/06/28 08:28:04;;;;;;;;;;;20.40;99.90;;;;;;5006117;28;20235;-69
2022/06/28 08:30:31;;;;;;;;;;;20.50;99.90;;;;;;5006288;28;19989;-68
2022/06/28 08:32:58;;;;;;;;;;;20.60;99.90;;;;;;5005806;28;20279;-70
2022/06/28 08:35:25;;;;;;;;;;;20.70;99.90;;;;;;5006229;28;19929;-69
2022/06/28 08:37:51;;;;;;;;;;;20.70;99.90;;;;;;5006161;28;20142;-69
2022/06/28 08:40:21;;;;;;;;;;;20.80;99.90;;;;;;5006123;28;19922;-68
2022/06/28 08:42:49;;;;;;;;;;;21.00;99.90;;;;;;5005514;28;20164;-69
2022/06/28 08:45:17;;;;;;;;;;;21.00;99.90;;;;;;5004926;28;19921;-69
2022/06/28 08:47:47;;;;;;;;;;;21.00;99.90;;;;;;5005952;28;19929;-69
2022/06/28 08:50:16;;;;;;;;;;;21.20;99.90;;;;;;5006081;28;19929;-68
2022/06/28 08:52:43;;;;;;;;;;;21.30;99.90;;;;;;5005305;28;19921;-68
2022/06/28 08:55:10;;;;;;;;;;;21.40;99.90;;;;;;5005952;28;19929;-68
2022/06/28 08:57:37;;;;;;;;;;;21.50;99.90;;;;;;5005238;28;19992;-69
2022/06/28 09:00:05;;;;;;;;;;;21.50;99.90;;;;;;5005803;28;20225;-69
2022/06/28 09:02:33;;;;;;;;;;;21.70;99.90;;;;;;5004708;28;19938;-69
2022/06/28 09:05:00;;;;;;;;;;;21.70;99.90;;;;;;5005807;28;20150;-69
2022/06/28 09:07:27;;;;;;;;;;;21.80;99.90;;;;;;5005674;28;19972;-71
2022/06/28 09:09:54;;;;;;;;;;;21.80;99.90;;;;;;5005594;28;19922;-69
2022/06/28 09:12:21;;;;;;;;;;;21.90;99.90;;;;;;5005195;28;19929;-69
2022/06/28 09:14:48;;;;;;;;;;;22.00;99.90;;;;;;5005375;28;19929;-69
2022/06/28 09:17:19;;;;;;;;;;;22.20;99.90;;;;;;5005110;28;20121;-69
2022/06/28 09:19:47;;;;;;;;;;;22.20;99.90;;;;;;5005488;28;19989;-71
2022/06/28 09:22:28;;;;;;;;;;;22.20;99.90;;;;;;5005008;28;20106;-69
2022/06/28 09:24:55;;;;;;;;;;;22.20;99.90;;;;;;5005277;28;19964;-69
2022/06/28 09:27:27;;;;;;;;;;;22.20;99.90;;;;;;5004993;28;19971;-71
2022/06/28 09:29:54;;;;;;;;;;;22.20;99.90;;;;;;5004615;28;19948;-72
2022/06/28 09:32:26;;;;;;;;;;;22.20;99.90;;;;;;5004841;28;20173;-69
2022/06/28 09:34:55;;;;;;;;;;;22.10;99.90;;;;;;5005137;28;19922;-69
2022/06/28 09:37:40;;;;;;;;;;;22.10;99.90;;;;;;5005102;28;20125;-70
2022/06/28 09:40:11;;;;;;;;;;;22.10;99.90;;;;;;5004717;28;19925;-69
2022/06/28 09:42:38;;;;;;;;;;;22.10;99.90;;;;;;5004891;28;20182;-68
2022/06/28 09:45:05;;;;;;;;;;;22.20;99.90;;;;;;5003893;28;19953;-69
2022/06/28 09:47:32;;;;;;;;;;;22.30;99.90;;;;;;5004716;28;19922;-69
2022/06/28 09:50:00;;;;;;;;;;;22.30;99.90;;;;;;5004470;28;19922;-71
2022/06/28 09:52:27;;;;;;;;;;;22.30;99.90;;;;;;5004286;28;19960;-70
2022/06/28 09:54:55;;;;;;;;;;;22.40;99.90;;;;;;5004558;28;19922;-68
2022/06/28 09:57:22;;;;;;;;;;;22.30;99.90;;;;;;5004296;28;19921;-70
2022/06/28 09:59:50;;;;;;;;;;;22.30;99.90;;;;;;5004652;28;19986;-69
2022/06/28 10:02:17;;;;;;;;;;;22.30;99.90;;;;;;5003700;28;19980;-68
2022/06/28 10:04:44;;;;;;;;;;;22.30;99.90;;;;;;5003714;28;19929;-69
2022/06/28 10:07:12;;;;;;;;;;;22.40;99.90;;;;;;5004430;28;19928;-70
2022/06/28 10:09:40;;;;;;;;;;;22.50;99.90;;;;;;5004448;28;19952;-70
2022/06/28 10:15:04;;;;;;;;;;;22.70;99.90;;;;;;5004466;28;19985;-69
2022/06/28 10:17:44;;;;;;;;;;;22.80;99.90;;;;;;5004213;28;20157;-69
2022/06/28 10:20:12;;;;;;;;;;;23.00;99.90;;;;;;5004034;28;19989;-68
2022/06/28 10:22:40;;;;;;;;;;;23.10;99.90;;;;;;5004082;28;19922;-68
2022/06/28 10:25:14;;;;;;;;;;;23.20;99.90;;;;;;5004264;28;20102;-69
2022/06/28 10:27:44;;;;;;;;;;;23.40;99.90;;;;;;5003934;28;20330;-69
2022/06/28 10:30:29;;;;;;;;;;;23.50;99.90;;;;;;5002322;28;21966;-70
2022/06/28 10:32:56;;;;;;;;;;;23.60;99.90;;;;;;5003610;28;19928;-69
2022/06/28 10:35:41;;;;;;;;;;;23.60;99.90;;;;;;5003942;28;19922;-69
2022/06/28 10:38:16;;;;;;;;;;;23.70;99.90;;;;;;4991227;28;19964;-69
2022/06/28 10:40:47;;;;;;;;;;;23.80;99.90;;;;;;5003681;28;19938;-68
2022/06/28 10:43:14;;;;;;;;;;;23.90;99.90;;;;;;5003895;28;19988;-70
2022/06/28 10:45:56;;;;;;;;;;;24.00;99.90;;;;;;5003005;28;20021;-69
2022/06/28 10:48:22;;;;;;;;;;;24.00;99.90;;;;;;5002105;28;20201;-69
2022/06/28 10:50:55;;;;;;;;;;;24.20;99.90;;;;;;5004059;28;19944;-69
2022/06/28 10:53:23;;;;;;;;;;;24.10;99.90;;;;;;5003160;28;19956;-71
2022/06/28 10:56:05;;;;;;;;;;;24.10;99.90;;;;;;5003176;28;19928;-71
2022/06/28 10:58:31;;;;;;;;;;;24.00;99.90;;;;;;5002402;28;19985;-69
2022/06/28 11:00:58;;;;;;;;;;;24.00;99.90;;;;;;5003572;28;19922;-71
2022/06/28 11:03:25;;;;;;;;;;;24.00;99.90;;;;;;5003221;28;19947;-68
2022/06/28 11:05:53;;;;;;;;;;;24.00;99.90;;;;;;5003310;28;19976;-69
2022/06/28 11:08:38;;;;;;;;;;;24.10;99.90;;;;;;5003430;28;19921;-69
2022/06/28 11:11:07;;;;;;;;;;;24.00;99.90;;;;;;5003652;28;20228;-69
2022/06/28 11:13:34;;;;;;;;;;;23.90;99.90;;;;;;5003594;28;19929;-69
2022/06/28 11:16:01;;;;;;;;;;;23.90;99.90;;;;;;5003499;28;19929;-69
2022/06/28 11:18:28;;;;;;;;;;;23.90;99.90;;;;;;5003473;28;19944;-69
2022/06/28 11:20:55;;;;;;;;;;;23.80;99.90;;;;;;5003440;28;19954;-69
2022/06/28 11:23:25;;;;;;;;;;;23.90;99.90;;;;;;5003842;28;19989;-69
2022/06/28 11:28:51;;;;;;;;;;;24.10;99.90;;;;;;5004030;28;19964;-69
2022/06/28 11:31:19;;;;;;;;;;;24.10;99.90;;;;;;5000717;28;19925;-70
2022/06/28 11:33:45;;;;;;;;;;;24.10;99.90;;;;;;5003219;28;19981;-70
2022/06/28 11:36:20;;;;;;;;;;;24.20;99.90;;;;;;5003291;28;19986;-69
2022/06/28 11:38:47;;;;;;;;;;;24.30;99.90;;;;;;5002638;28;19922;-70
2022/06/28 11:41:27;;;;;;;;;;;24.30;99.90;;;;;;5002990;28;19921;-69
2022/06/28 11:43:56;;;;;;;;;;;24.40;99.90;;;;;;4996171;28;20163;-70
2022/06/28 11:46:24;;;;;;;;;;;24.50;99.90;;;;;;4990598;28;19929;-69
2022/06/28 11:48:51;;;;;;;;;;;24.70;99.90;;;;;;4992363;28;19945;-69
2022/06/28 11:51:24;;;;;;;;;;;24.80;99.90;;;;;;5003618;28;19925;-71
2022/06/28 11:53:51;;;;;;;;;;;24.90;99.90;;;;;;5000688;28;20066;-69
2022/06/28 11:56:18;;;;;;;;;;;25.00;99.90;;;;;;5006362;28;19922;-69
2022/06/28 11:58:45;;;;;;;;;;;25.00;99.90;;;;;;5006560;28;19922;-70
2022/06/28 12:01:13;;;;;;;;;;;25.10;99.90;;;;;;5006346;28;19921;-70
2022/06/28 12:06:35;;;;;;;;;;;25.20;99.90;;;;;;5121426;27;19950;-68
2022/06/28 12:09:02;;;;;;;;;;;25.40;99.90;;;;;;5120852;28;19927;-68
2022/06/28 12:11:30;;;;;;;;;;;25.60;99.90;;;;;;5107507;28;19920;-68
2022/06/28 12:14:01;;;;;;;;;;;25.70;99.90;;;;;;5100209;28;19952;-68
2022/06/28 12:16:32;;;;;;;;;;;25.90;99.90;;;;;;5105000;22;19927;-91
2022/06/28 12:18:59;;;;;;;;;;;26.10;99.90;;;;;;5059330;28;19929;-92
2022/06/28 12:21:26;;;;;;;;;;;26.40;99.90;;;;;;5053835;28;19929;-91
2022/06/28 12:23:55;;;;;;;;;;;26.60;99.90;;;;;;5072427;28;19924;-90
2022/06/28 12:26:37;;;;;;;;;;;26.80;99.90;;;;;;5064005;28;19921;-92
2022/06/28 12:29:04;;;;;;;;;;;26.70;99.90;;;;;;5079004;28;20104;-92
2022/06/28 12:31:30;;;;;;;;;;;26.60;99.90;;;;;;5093306;28;19909;-92
2022/06/28 12:33:57;;;;;;;;;;;26.50;99.90;;;;;;5084913;28;20255;-91
2022/06/28 12:36:24;;;;;;;;;;;26.50;99.90;;;;;;5066886;28;20108;-90
2022/06/28 12:38:51;;;;;;;;;;;26.40;99.90;;;;;;5064910;28;19929;-91
2022/06/28 12:41:19;;;;;;;;;;;26.40;99.90;;;;;;5063212;28;19921;-90
2022/06/28 12:43:46;;;;;;;;;;;26.50;99.90;;;;;;5058167;28;20187;-91
2022/06/28 12:46:12;;;;;;;;;;;26.60;99.90;;;;;;5066108;28;19925;-91
2022/06/28 12:48:39;;;;;;;;;;;26.70;99.90;;;;;;5062175;28;20224;-90
2022/06/28 12:51:06;;;;;;;;;;;26.50;99.90;;;;;;5066557;28;19945;-90
2022/06/28 12:53:33;;;;;;;;;;;26.60;99.90;;;;;;5067402;28;19929;-90
2022/06/28 12:55:59;;;;;;;;;;;26.50;99.90;;;;;;5066025;28;20124;-91
2022/06/28 12:58:28;;;;;;;;;;;26.50;99.90;;;;;;5070123;28;19937;-90
2022/06/28 13:00:54;;;;;;;;;;;26.50;99.90;;;;;;5073468;28;19921;-92
2022/06/28 13:03:21;;;;;;;;;;;26.60;99.90;;;;;;5069461;28;19932;-91
2022/06/28 13:05:48;;;;;;;;;;;26.80;99.90;;;;;;5071449;28;19928;-90
2022/06/28 13:08:15;;;;;;;;;;;27.00;99.90;;;;;;5069700;28;20041;-92
2022/06/28 13:10:42;;;;;;;;;;;27.20;99.90;;;;;;5067424;28;19921;-91
2022/06/28 13:13:09;;;;;;;;;;;27.40;99.90;;;;;;5070808;28;19928;-91
2022/06/28 13:15:37;;;;;;;;;;;27.60;99.90;;;;;;5068494;28;19920;-91
2022/06/28 13:18:04;;;;;;;;;;;27.70;99.90;;;;;;5054333;28;19921;-91
2022/06/28 13:20:31;;;;;;;;;;;27.60;99.90;;;;;;5056711;28;19921;-91
2022/06/28 13:22:57;;;;;;;;;;;27.40;99.90;;;;;;5053725;28;19944;-91
2022/06/28 13:25:24;;;;;;;;;;;27.40;99.90;;;;;;5050086;28;19947;-90
2022/06/28 13:27:51;;;;;;;;;;;27.40;99.90;;;;;;5056468;28;19916;-92
2022/06/28 13:30:18;;;;;;;;;;;27.60;99.90;;;;;;5057416;28;19909;-92
2022/06/28 13:32:46;;;;;;;;;;;27.40;99.90;;;;;;5056718;28;19921;-91
2022/06/28 13:35:13;;;;;;;;;;;27.30;99.90;;;;;;5057200;28;19929;-91
2022/06/28 13:37:40;;;;;;;;;;;27.30;99.90;;;;;;5056672;28;19921;-91
2022/06/28 13:40:07;;;;;;;;;;;27.40;99.90;;;;;;5056722;28;19921;-92
2022/06/28 13:42:34;;;;;;;;;;;27.60;99.90;;;;;;5058747;28;19940;-89
2022/06/28 13:45:01;;;;;;;;;;;27.80;99.90;;;;;;5055341;28;19921;-89
2022/06/28 13:47:28;;;;;;;;;;;27.90;99.90;;;;;;5058021;28;21330;-91
2022/06/28 13:49:57;;;;;;;;;;;28.10;99.90;;;;;;5053433;28;19981;-91
2022/06/28 13:52:23;;;;;;;;;;;28.10;98.80;;;;;;5053076;28;19936;-90
2022/06/28 13:54:50;;;;;;;;;;;28.20;98.50;;;;;;5057053;28;19921;-91
2022/06/28 13:57:19;;;;;;;;;;;28.20;98.50;;;;;;5057893;28;19929;-91
2022/06/28 13:59:46;;;;;;;;;;;28.20;98.20;;;;;;5056815;28;19921;-91
2022/06/28 14:02:13;;;;;;;;;;;28.10;98.20;;;;;;5057261;28;19921;-92
2022/06/28 14:04:40;;;;;;;;;;;28.20;98.70;;;;;;5057561;28;19925;-91
2022/06/28 14:07:08;;;;;;;;;;;28.50;98.60;;;;;;5057890;28;19932;-91
2022/06/28 14:09:35;;;;;;;;;;;28.60;98.00;;;;;;5056441;28;19939;-92
2022/06/28 14:12:02;;;;;;;;;;;28.50;98.40;;;;;;5056807;28;19936;-92
2022/06/28 14:14:28;;;;;;;;;;;28.50;99.40;;;;;;5055707;28;20217;-92
2022/06/28 14:16:58;;;;;;;;;;;28.70;99.40;;;;;;5056609;28;19929;-92
2022/06/28 14:19:25;;;;;;;;;;;28.90;98.20;;;;;;5057064;28;20227;-91
2022/06/28 14:21:52;;;;;;;;;;;28.80;98.40;;;;;;5050429;28;19920;-90
2022/06/28 14:24:20;;;;;;;;;;;28.80;98.10;;;;;;5053015;28;20160;-90
2022/06/28 14:26:54;;;;;;;;;;;28.50;98.30;;;;;;5055233;28;19913;-91
2022/06/28 14:29:23;;;;;;;;;;;28.10;99.30;;;;;;5051276;28;19921;-95
2022/06/28 14:38:10;;;;;;;;;;;27.10;99.90;;;;;;4947226;22;19936;-66
2022/06/28 14:40:38;;;;;;;;;;;26.90;99.90;;;;;;5043589;28;19928;-67
2022/06/28 14:43:05;;;;;;;;;;;26.80;99.90;;;;;;5044094;28;19953;-67
2022/06/28 14:45:31;;;;;;;;;;;26.70;99.90;;;;;;5038272;28;19949;-67